Time;durP1;ratioP1;P1;durP2;ratioP2;P2;SDS_P1;SDS_P2;PMS_P1;PMS_P2;Temp;Humidity;BMP_temperature;BMP_pressure;BME280_temperature;BME280_humidity;BME280_pressure;Samples;Min_cycle;Max_cycle;Signal;HPM_P1;HPM_P2
2022/03/05 06:00:25;;;;;;;17.73;8.60;;;-0.30;91.00;;;;;;6065726;23;20017;-79
2022/03/05 06:02:52;;;;;;;16.40;8.70;;;-0.30;91.40;;;;;;4968781;29;20115;-84
2022/03/05 06:05:20;;;;;;;20.13;9.43;;;-0.20;91.50;;;;;;4972629;29;20107;-87
2022/03/05 06:07:47;;;;;;;18.77;9.30;;;-0.20;91.60;;;;;;4972775;29;20074;-85
2022/03/05 06:10:14;;;;;;;19.08;9.93;;;-0.20;91.60;;;;;;4971481;29;20078;-81
2022/03/05 06:12:41;;;;;;;19.95;9.35;;;-0.20;91.60;;;;;;4970955;29;20130;-82
2022/03/05 06:15:10;;;;;;;17.52;8.80;;;-0.20;91.70;;;;;;4972756;29;20472;-82
2022/03/05 06:17:42;;;;;;;17.35;8.98;;;-0.10;91.80;;;;;;4970505;29;20051;-82
2022/03/05 06:20:11;;;;;;;17.58;9.18;;;-0.10;91.70;;;;;;4956841;29;20048;-81
2022/03/05 06:22:38;;;;;;;18.50;9.40;;;-0.10;91.70;;;;;;4949459;29;20044;-82
2022/03/05 06:25:08;;;;;;;18.08;9.35;;;-0.10;91.80;;;;;;4963628;29;20115;-80
2022/03/05 06:27:35;;;;;;;20.55;9.70;;;-0.10;91.90;;;;;;4969279;29;20051;-81
2022/03/05 06:30:03;;;;;;;19.13;9.05;;;0.00;91.90;;;;;;4967857;28;20051;-82
2022/03/05 06:32:30;;;;;;;17.17;9.05;;;0.00;91.90;;;;;;4962647;28;20063;-81
2022/03/05 06:34:58;;;;;;;18.60;8.90;;;0.10;91.90;;;;;;4957251;29;20106;-81
2022/03/05 06:37:25;;;;;;;18.85;9.27;;;0.10;91.80;;;;;;4964077;29;20568;-80
2022/03/05 06:39:52;;;;;;;21.00;10.18;;;0.10;91.70;;;;;;4968021;29;20130;-82
2022/03/05 06:42:19;;;;;;;21.58;11.13;;;0.20;91.80;;;;;;4964191;29;20469;-81
2022/03/05 06:44:46;;;;;;;20.77;10.18;;;0.20;91.80;;;;;;4957898;29;20086;-82
2022/03/05 06:47:13;;;;;;;18.48;9.55;;;0.20;91.90;;;;;;4963103;29;20138;-82
2022/03/05 06:49:40;;;;;;;19.30;9.52;;;0.20;91.80;;;;;;4967560;29;20047;-81
2022/03/05 06:52:10;;;;;;;19.10;9.52;;;0.20;91.80;;;;;;4966021;29;20043;-79
2022/03/05 06:54:37;;;;;;;19.33;10.05;;;0.20;91.80;;;;;;4963846;29;20049;-82
2022/03/05 06:57:05;;;;;;;20.17;10.60;;;0.20;91.90;;;;;;4961116;29;20473;-82
2022/03/05 06:59:32;;;;;;;20.10;10.27;;;0.20;91.90;;;;;;4956953;29;20073;-81
2022/03/05 07:01:59;;;;;;;18.77;9.68;;;0.20;91.90;;;;;;4962318;29;20311;-79
2022/03/05 07:04:26;;;;;;;19.92;10.27;;;0.30;91.90;;;;;;4963260;29;20067;-82
2022/03/05 07:06:53;;;;;;;18.45;10.20;;;0.30;91.90;;;;;;4955566;29;20062;-79
2022/03/05 07:09:22;;;;;;;18.67;10.23;;;0.30;92.00;;;;;;4970449;29;20134;-80
2022/03/05 07:11:49;;;;;;;21.95;10.30;;;0.30;91.80;;;;;;4971553;29;20107;-79
2022/03/05 07:14:16;;;;;;;19.75;9.32;;;0.30;91.60;;;;;;4972877;29;20067;-79
2022/03/05 07:16:44;;;;;;;18.67;10.15;;;0.40;91.70;;;;;;4971290;29;20110;-79
2022/03/05 07:19:11;;;;;;;24.73;11.35;;;0.40;91.70;;;;;;4965643;29;20057;-76
2022/03/05 07:21:38;;;;;;;21.42;11.52;;;0.40;91.70;;;;;;4961579;29;20051;-80
2022/03/05 07:24:08;;;;;;;22.48;11.57;;;0.30;91.80;;;;;;4966060;29;20053;-80
2022/03/05 07:26:37;;;;;;;20.55;10.90;;;0.30;92.00;;;;;;4956970;29;20047;-85
2022/03/05 07:29:04;;;;;;;24.17;11.82;;;0.30;92.20;;;;;;4943962;29;20090;-84
2022/03/05 07:31:31;;;;;;;19.90;11.00;;;0.40;92.30;;;;;;4957688;28;20074;-80
2022/03/05 07:33:58;;;;;;;22.48;11.15;;;0.40;92.40;;;;;;4960628;29;20106;-83
2022/03/05 07:36:25;;;;;;;20.17;10.77;;;0.40;92.30;;;;;;4961017;29;20107;-82
2022/03/05 07:38:52;;;;;;;20.80;10.15;;;0.40;92.30;;;;;;4955003;29;20051;-82
2022/03/05 07:41:19;;;;;;;19.55;9.80;;;0.50;92.40;;;;;;4966192;29;20047;-79
2022/03/05 07:43:48;;;;;;;20.00;10.05;;;0.50;92.40;;;;;;4964137;29;20051;-80
2022/03/05 07:46:15;;;;;;;20.92;10.55;;;0.60;92.50;;;;;;4965276;29;20126;-80
2022/03/05 07:48:42;;;;;;;19.67;10.48;;;0.60;92.60;;;;;;4963759;29;20481;-84
2022/03/05 07:51:09;;;;;;;20.15;10.90;;;0.60;92.60;;;;;;4946495;29;20112;-85
2022/03/05 07:53:36;;;;;;;24.20;11.82;;;0.70;92.80;;;;;;4948986;29;20050;-81
2022/03/05 07:56:04;;;;;;;22.65;10.93;;;0.80;92.90;;;;;;4948497;29;20057;-83
2022/03/05 07:58:31;;;;;;;22.35;11.77;;;0.80;93.00;;;;;;4948217;29;20489;-83
2022/03/05 08:00:59;;;;;;;22.63;11.43;;;0.90;93.00;;;;;;4946282;29;20106;-80
2022/03/05 08:03:27;;;;;;;22.83;11.45;;;1.00;92.90;;;;;;4945396;29;20481;-84
2022/03/05 08:05:54;;;;;;;21.35;11.82;;;1.00;93.00;;;;;;4959580;29;20058;-81
2022/03/05 08:08:21;;;;;;;22.98;12.63;;;1.10;92.90;;;;;;4979337;28;20051;-80
2022/03/05 08:10:48;;;;;;;24.25;11.88;;;1.20;92.80;;;;;;4961159;28;20049;-78
2022/03/05 08:13:15;;;;;;;24.65;12.60;;;1.30;92.80;;;;;;4959551;29;20047;-81
2022/03/05 08:15:42;;;;;;;23.27;12.48;;;1.40;92.80;;;;;;4944554;29;20075;-80
2022/03/05 08:18:10;;;;;;;24.98;11.88;;;1.40;92.70;;;;;;4941360;29;20404;-81
2022/03/05 08:20:38;;;;;;;23.67;12.73;;;1.50;93.00;;;;;;4950519;29;20043;-79
2022/03/05 08:23:05;;;;;;;24.45;12.40;;;1.60;92.70;;;;;;4960661;29;20074;-80
2022/03/05 08:25:32;;;;;;;21.70;11.82;;;1.70;92.80;;;;;;4964812;29;20047;-82
2022/03/05 08:27:59;;;;;;;21.60;11.90;;;1.80;92.30;;;;;;4964465;29;20511;-81
2022/03/05 08:30:27;;;;;;;26.20;12.95;;;1.90;92.10;;;;;;4954065;29;20047;-76
2022/03/05 08:32:54;;;;;;;20.83;11.55;;;1.90;92.10;;;;;;4957016;29;20057;-86
2022/03/05 08:35:23;;;;;;;23.65;11.65;;;2.00;92.00;;;;;;4964422;29;20047;-80
2022/03/05 08:37:50;;;;;;;20.77;11.73;;;2.10;92.00;;;;;;4955789;29;20051;-82
2022/03/05 08:40:18;;;;;;;23.80;12.75;;;2.20;91.90;;;;;;4962364;29;20043;-82
2022/03/05 08:42:48;;;;;;;22.58;11.68;;;2.30;91.60;;;;;;4966727;29;20043;-79
2022/03/05 08:45:15;;;;;;;20.75;11.35;;;2.40;91.50;;;;;;4964146;28;20442;-79
2022/03/05 08:47:44;;;;;;;20.80;11.75;;;2.50;91.10;;;;;;4963177;29;20086;-82
2022/03/05 08:50:11;;;;;;;22.25;11.50;;;2.50;90.90;;;;;;4964250;29;20055;-80
2022/03/05 08:52:40;;;;;;;26.80;13.32;;;2.60;90.70;;;;;;4964187;29;20047;-82
2022/03/05 08:55:09;;;;;;;22.48;11.48;;;2.70;90.70;;;;;;4961468;29;20399;-81
2022/03/05 08:57:36;;;;;;;21.55;12.05;;;2.70;90.70;;;;;;4960270;29;20055;-78
2022/03/05 09:00:07;;;;;;;22.13;12.35;;;2.80;90.50;;;;;;4954085;29;20055;-81
2022/03/05 09:02:34;;;;;;;23.85;12.63;;;2.90;90.40;;;;;;4944709;29;20084;-80
2022/03/05 09:05:02;;;;;;;20.75;10.85;;;2.90;90.30;;;;;;4947507;29;20051;-77
2022/03/05 09:07:29;;;;;;;21.48;11.27;;;2.90;90.10;;;;;;4952256;29;20130;-81
2022/03/05 09:09:58;;;;;;;19.13;10.90;;;3.00;89.90;;;;;;4959285;29;20050;-82
2022/03/05 09:12:25;;;;;;;22.33;11.20;;;3.10;88.30;;;;;;4961620;29;20074;-81
2022/03/05 09:14:52;;;;;;;20.25;9.80;;;3.20;87.80;;;;;;4965062;29;20408;-78
2022/03/05 09:17:19;;;;;;;15.48;8.93;;;3.30;85.70;;;;;;4965679;29;20078;-80
2022/03/05 09:19:46;;;;;;;17.00;9.68;;;3.40;84.70;;;;;;4963980;29;20051;-79
2022/03/05 09:22:13;;;;;;;18.17;9.48;;;3.40;83.80;;;;;;4964226;29;20051;-82
2022/03/05 09:24:40;;;;;;;18.08;9.48;;;3.50;83.20;;;;;;4954615;29;20155;-80
2022/03/05 09:27:10;;;;;;;19.40;9.95;;;3.60;82.60;;;;;;4964042;29;20052;-80
2022/03/05 09:29:37;;;;;;;16.15;8.80;;;3.70;80.60;;;;;;4958867;29;20382;-79
2022/03/05 09:32:05;;;;;;;17.73;9.43;;;3.70;79.70;;;;;;4943366;29;20387;-79
2022/03/05 09:34:32;;;;;;;14.48;8.45;;;3.80;79.40;;;;;;4942855;29;20051;-82
2022/03/05 09:36:59;;;;;;;17.80;9.00;;;3.90;79.40;;;;;;4941462;29;20082;-79
2022/03/05 09:39:26;;;;;;;17.23;9.15;;;3.90;78.80;;;;;;4937836;29;20051;-80
2022/03/05 09:41:55;;;;;;;17.67;9.25;;;4.00;77.50;;;;;;4937175;29;20044;-79
2022/03/05 09:44:23;;;;;;;16.00;8.27;;;4.00;76.10;;;;;;4936584;29;20050;-79
2022/03/05 09:46:51;;;;;;;16.20;8.85;;;4.10;75.60;;;;;;4949477;29;20043;-81
2022/03/05 09:49:18;;;;;;;14.68;7.88;;;4.20;74.90;;;;;;4955807;29;20051;-81
2022/03/05 09:51:46;;;;;;;14.75;7.88;;;4.30;74.30;;;;;;4954977;29;20047;-80
2022/03/05 09:54:13;;;;;;;15.13;7.95;;;4.30;73.20;;;;;;4955032;29;20400;-78
2022/03/05 09:56:40;;;;;;;15.45;8.20;;;4.40;71.60;;;;;;4955654;28;20138;-79
2022/03/05 09:59:07;;;;;;;14.35;7.70;;;4.50;70.40;;;;;;4950715;29;20048;-80
2022/03/05 10:01:37;;;;;;;13.80;8.00;;;4.50;69.80;;;;;;4937013;29;20056;-77
2022/03/05 10:04:05;;;;;;;13.43;6.93;;;4.60;67.50;;;;;;4936962;29;20063;-76
2022/03/05 10:06:32;;;;;;;14.07;7.05;;;4.60;66.60;;;;;;4952096;29;20053;-79
2022/03/05 10:08:59;;;;;;;12.05;6.55;;;4.70;65.70;;;;;;4956511;29;20047;-83
2022/03/05 10:11:38;;;;;;;13.07;6.30;;;4.70;64.20;;;;;;4956271;29;20135;-85
2022/03/05 10:14:16;;;;;;;12.35;6.25;;;4.80;63.60;;;;;;4951693;29;20082;-84
2022/03/05 10:16:45;;;;;;;12.05;6.22;;;4.80;62.70;;;;;;4954794;29;20078;-80
2022/03/05 10:19:19;;;;;;;11.00;6.10;;;4.90;61.60;;;;;;4955885;29;20416;-83
2022/03/05 10:21:58;;;;;;;11.63;5.97;;;4.90;60.80;;;;;;4955302;29;20051;-84
2022/03/05 10:24:34;;;;;;;12.82;6.65;;;5.00;60.40;;;;;;4956170;29;20512;-80
2022/03/05 10:27:02;;;;;;;11.85;6.50;;;5.00;59.50;;;;;;4956198;29;20519;-82
2022/03/05 10:29:34;;;;;;;14.95;7.57;;;5.00;58.60;;;;;;4956149;29;20134;-81
2022/03/05 10:32:06;;;;;;;13.52;7.18;;;5.10;57.90;;;;;;4955986;29;20055;-80
2022/03/05 10:34:55;;;;;;;13.07;6.93;;;5.10;58.30;;;;;;4955918;29;20051;-82
2022/03/05 10:37:23;;;;;;;9.88;5.93;;;5.10;58.70;;;;;;4955384;29;20051;-78
2022/03/05 10:39:52;;;;;;;10.45;5.43;;;5.10;57.90;;;;;;4953744;29;20048;-81
2022/03/05 10:42:21;;;;;;;10.02;5.30;;;5.20;57.00;;;;;;4955857;29;20504;-80
2022/03/05 10:45:00;;;;;;;9.55;5.35;;;5.20;56.60;;;;;;4955462;29;20073;-81
2022/03/05 10:47:37;;;;;;;9.85;5.10;;;5.30;56.30;;;;;;4955987;29;20052;-80
2022/03/05 10:50:07;;;;;;;9.20;5.18;;;5.30;56.50;;;;;;4955666;29;20497;-80
2022/03/05 10:52:46;;;;;;;9.95;5.70;;;5.40;56.40;;;;;;4955467;29;20051;-82
2022/03/05 10:55:18;;;;;;;11.65;6.22;;;5.40;55.70;;;;;;4955773;29;20051;-81
2022/03/05 10:58:05;;;;;;;10.23;5.93;;;5.50;55.90;;;;;;4954785;29;20047;-77
2022/03/05 11:00:32;;;;;;;10.52;5.80;;;5.50;56.10;;;;;;4954567;29;20489;-80
2022/03/05 11:03:02;;;;;;;10.23;6.05;;;5.60;56.10;;;;;;4955977;29;20146;-81
2022/03/05 11:05:30;;;;;;;11.48;6.22;;;5.60;56.90;;;;;;4955752;29;20051;-82
2022/03/05 11:07:57;;;;;;;12.80;6.72;;;5.70;56.30;;;;;;4942210;29;20055;-81
2022/03/05 11:10:30;;;;;;;10.88;6.30;;;5.70;56.90;;;;;;4939312;29;20478;-79
2022/03/05 11:13:00;;;;;;;10.77;5.90;;;5.80;56.50;;;;;;4939240;29;20055;-80
2022/03/05 11:15:28;;;;;;;10.40;6.15;;;5.90;56.50;;;;;;4939226;29;20486;-80
2022/03/05 11:17:58;;;;;;;12.43;6.15;;;6.00;56.10;;;;;;4939245;29;20062;-81
2022/03/05 11:20:27;;;;;;;11.32;5.97;;;6.10;56.10;;;;;;4939022;29;20087;-80
2022/03/05 11:22:56;;;;;;;11.00;5.82;;;6.10;55.50;;;;;;4939160;29;20425;-79
2022/03/05 11:25:26;;;;;;;11.40;6.40;;;6.10;55.20;;;;;;4938868;29;20135;-80
2022/03/05 11:27:58;;;;;;;11.32;6.18;;;6.20;54.80;;;;;;4938914;29;20490;-80
2022/03/05 11:30:26;;;;;;;10.20;5.68;;;6.20;54.20;;;;;;4940110;29;20059;-80
2022/03/05 11:32:53;;;;;;;12.30;6.70;;;6.20;53.70;;;;;;4939077;29;20054;-79
2022/03/05 11:35:29;;;;;;;10.20;5.90;;;6.20;53.30;;;;;;4938837;29;20055;-80
2022/03/05 11:37:56;;;;;;;10.88;5.50;;;6.20;52.90;;;;;;4938795;29;20062;-78
2022/03/05 11:40:39;;;;;;;9.88;5.57;;;6.20;53.10;;;;;;4938914;29;20615;-80
2022/03/05 11:43:20;;;;;;;10.48;5.90;;;6.30;52.60;;;;;;4939007;29;20134;-83
2022/03/05 11:45:50;;;;;;;11.68;6.35;;;6.30;53.10;;;;;;4938840;29;20043;-78
2022/03/05 11:48:36;;;;;;;10.60;6.20;;;6.40;52.70;;;;;;4939163;29;20054;-81
2022/03/05 11:51:16;;;;;;;10.32;6.22;;;6.40;51.40;;;;;;4938466;29;20127;-80
2022/03/05 11:53:44;;;;;;;10.63;6.10;;;6.40;51.20;;;;;;4938810;29;20051;-81
2022/03/05 11:56:25;;;;;;;12.77;5.93;;;6.50;51.60;;;;;;4940081;29;20488;-82
2022/03/05 11:58:53;;;;;;;11.38;6.05;;;6.50;51.80;;;;;;4939114;29;20047;-81
2022/03/05 12:01:39;;;;;;;10.02;6.18;;;6.60;51.50;;;;;;4938804;29;20060;-78
2022/03/05 12:04:24;;;;;;;10.52;6.07;;;6.70;51.30;;;;;;4938516;29;20051;-81
2022/03/05 12:06:57;;;;;;;10.95;5.90;;;6.80;51.00;;;;;;4938988;29;20408;-79
2022/03/05 12:09:56;;;;;;;10.43;6.03;;;6.90;51.00;;;;;;4947160;29;20056;-78
2022/03/05 12:12:23;;;;;;;10.57;5.80;;;7.10;50.60;;;;;;4941733;29;20051;-80
2022/03/05 12:15:13;;;;;;;11.65;6.13;;;7.20;50.40;;;;;;4939785;29;20497;-81
2022/03/05 12:17:46;;;;;;;11.60;6.72;;;7.30;50.40;;;;;;4938945;29;20059;-78
2022/03/05 12:20:16;;;;;;;10.63;6.15;;;7.40;49.70;;;;;;4938614;29;20238;-78
2022/03/05 12:23:07;;;;;;;11.43;6.63;;;7.40;49.60;;;;;;4938577;29;20402;-79
2022/03/05 12:25:37;;;;;;;10.70;6.28;;;7.50;49.60;;;;;;4950509;29;20050;-81
2022/03/05 12:28:07;;;;;;;11.95;6.30;;;7.60;49.60;;;;;;4949077;29;20065;-80
2022/03/05 12:30:37;;;;;;;10.55;5.93;;;7.80;50.00;;;;;;4952017;29;20044;-82
2022/03/05 12:33:07;;;;;;;10.52;5.88;;;8.00;49.90;;;;;;4950655;29;20078;-78
2022/03/05 12:35:34;;;;;;;11.45;6.32;;;8.20;49.40;;;;;;4956655;29;20511;-78
2022/03/05 12:38:04;;;;;;;11.70;6.35;;;8.40;48.60;;;;;;4956921;29;20047;-78
2022/03/05 12:40:32;;;;;;;11.45;6.40;;;8.50;48.70;;;;;;4947138;29;20051;-77
2022/03/05 12:43:01;;;;;;;10.70;6.15;;;8.70;47.80;;;;;;4957615;29;20126;-76
2022/03/05 12:45:31;;;;;;;10.75;6.35;;;8.80;47.20;;;;;;4957503;29;20138;-78
2022/03/05 12:48:00;;;;;;;10.88;6.30;;;8.80;47.10;;;;;;4956938;29;20130;-76
2022/03/05 12:50:31;;;;;;;12.48;6.57;;;8.90;46.40;;;;;;4956402;29;20126;-77
2022/03/05 12:53:07;;;;;;;11.25;6.78;;;9.00;46.00;;;;;;4956246;29;20093;-77
2022/03/05 12:55:39;;;;;;;10.68;6.13;;;9.10;45.70;;;;;;4952555;28;20106;-79
2022/03/05 12:58:11;;;;;;;11.60;6.80;;;9.10;45.20;;;;;;4942771;29;20059;-78
2022/03/05 13:00:39;;;;;;;10.05;6.57;;;9.10;45.20;;;;;;4945421;29;20051;-80
2022/03/05 13:03:07;;;;;;;11.57;7.05;;;9.00;45.10;;;;;;4947206;29;20436;-78
2022/03/05 13:05:38;;;;;;;12.38;6.85;;;9.10;45.50;;;;;;4938870;29;20048;-74
2022/03/05 13:08:13;;;;;;;10.52;6.57;;;9.10;45.50;;;;;;4941620;29;20051;-74
2022/03/05 13:10:44;;;;;;;11.05;6.68;;;9.10;45.50;;;;;;4948023;29;20052;-78
2022/03/05 13:13:13;;;;;;;12.40;6.50;;;9.10;45.20;;;;;;4958146;29;20044;-75
2022/03/05 13:15:41;;;;;;;10.15;6.40;;;9.20;45.20;;;;;;4937515;29;20051;-76
2022/03/05 13:18:14;;;;;;;12.10;7.22;;;9.50;45.10;;;;;;4949150;29;20046;-80
2022/03/05 13:20:41;;;;;;;10.55;6.57;;;9.80;44.70;;;;;;4934350;29;20056;-79
2022/03/05 13:23:10;;;;;;;12.05;7.13;;;10.00;44.30;;;;;;4934912;29;20043;-76
2022/03/05 13:25:43;;;;;;;9.25;6.22;;;10.20;44.00;;;;;;4939462;29;20059;-76
2022/03/05 13:28:11;;;;;;;10.57;6.80;;;10.40;43.90;;;;;;4947565;29;20047;-78
2022/03/05 13:30:43;;;;;;;11.30;6.63;;;10.60;44.00;;;;;;4953311;28;20055;-77
2022/03/05 13:33:11;;;;;;;10.30;6.40;;;10.90;43.40;;;;;;4954572;29;20382;-76
2022/03/05 13:35:45;;;;;;;11.48;7.20;;;11.20;43.70;;;;;;4948877;29;20075;-79
2022/03/05 13:38:27;;;;;;;10.45;6.22;;;11.50;42.60;;;;;;4953154;29;20063;-77
2022/03/05 13:40:55;;;;;;;10.68;6.28;;;11.60;42.10;;;;;;4937167;29;20146;-78
2022/03/05 13:43:23;;;;;;;11.95;7.30;;;11.70;41.40;;;;;;4936346;29;20054;-79
2022/03/05 13:45:54;;;;;;;10.02;6.45;;;12.00;40.70;;;;;;4953773;29;20062;-76
2022/03/05 13:48:21;;;;;;;10.07;6.45;;;12.30;40.40;;;;;;4952606;29;20130;-75
2022/03/05 13:50:48;;;;;;;11.90;7.32;;;12.60;40.10;;;;;;4937676;29;20110;-76
2022/03/05 13:53:18;;;;;;;14.30;8.43;;;13.40;58.20;;;;;;4948968;29;20046;-75
2022/03/05 13:55:46;;;;;;;13.00;7.72;;;13.40;54.10;;;;;;4938377;29;20507;-74
2022/03/05 13:58:23;;;;;;;9.88;6.55;;;13.50;38.00;;;;;;4941143;29;20552;-75
2022/03/05 14:00:50;;;;;;;12.35;7.22;;;13.60;37.20;;;;;;4935377;29;20055;-75
2022/03/05 14:03:17;;;;;;;10.27;6.05;;;13.70;36.70;;;;;;4950903;29;20445;-77
2022/03/05 14:05:45;;;;;;;9.05;6.03;;;13.80;37.20;;;;;;4953823;29;20057;-74
2022/03/05 14:08:12;;;;;;;9.68;6.30;;;14.20;36.50;;;;;;4940621;29;20043;-74
2022/03/05 14:10:40;;;;;;;9.20;5.97;;;15.10;35.00;;;;;;4954323;29;20047;-76
2022/03/05 14:13:24;;;;;;;8.38;6.00;;;15.90;35.00;;;;;;4960063;29;20062;-78
2022/03/05 14:15:51;;;;;;;8.40;5.88;;;17.30;33.80;;;;;;4975179;28;20031;-77
2022/03/05 14:18:18;;;;;;;9.10;5.53;;;19.10;32.50;;;;;;4976466;28;20078;-76
2022/03/05 14:20:47;;;;;;;8.27;5.60;;;21.10;30.70;;;;;;4975423;29;20086;-77
2022/03/05 14:23:16;;;;;;;7.97;5.55;;;22.90;28.90;;;;;;4975458;28;20484;-79
2022/03/05 14:25:46;;;;;;;7.53;5.20;;;24.50;27.90;;;;;;4958270;29;20093;-75
2022/03/05 14:28:17;;;;;;;7.53;5.40;;;25.90;42.90;;;;;;4953483;29;20051;-77
2022/03/05 14:30:45;;;;;;;7.78;5.50;;;27.40;40.30;;;;;;4953428;29;20047;-78
2022/03/05 14:33:13;;;;;;;7.03;5.00;;;28.60;25.90;;;;;;4952577;29;20047;-76
2022/03/05 14:35:41;;;;;;;7.78;5.53;;;29.50;25.40;;;;;;4952826;29;20052;-76
2022/03/05 14:38:09;;;;;;;6.70;4.60;;;30.40;25.00;;;;;;4950574;29;20051;-77
2022/03/05 14:40:38;;;;;;;7.07;5.20;;;31.10;24.60;;;;;;4953386;29;20079;-76
2022/03/05 14:43:09;;;;;;;7.20;5.35;;;31.60;24.20;;;;;;4953926;28;20511;-77
2022/03/05 14:45:40;;;;;;;8.52;5.47;;;31.60;24.10;;;;;;4954272;29;20414;-76
2022/03/05 14:48:09;;;;;;;6.88;4.95;;;31.80;23.80;;;;;;4956418;29;20568;-74
2022/03/05 14:50:36;;;;;;;6.63;4.60;;;;;;;;;;4956326;29;20333;-73
2022/03/05 14:53:04;;;;;;;7.03;5.15;;;32.50;23.20;;;;;;4956638;29;20126;-74
2022/03/05 14:55:33;;;;;;;7.85;6.10;;;32.90;31.20;;;;;;4956161;29;20051;-74
2022/03/05 14:58:00;;;;;;;9.73;7.25;;;33.50;24.70;;;;;;4956389;29;20077;-76
2022/03/05 15:00:28;;;;;;;6.93;5.20;;;;;;;;;;4956320;29;20444;-75
2022/03/05 15:02:59;;;;;;;7.68;5.93;;;;;;;;;;4955139;29;20094;-73
2022/03/05 15:05:26;;;;;;;8.15;6.20;;;;;;;;;;4954345;29;20058;-74
2022/03/05 15:07:53;;;;;;;8.60;6.03;;;33.20;22.20;;;;;;4955364;29;20126;-75
2022/03/05 15:10:21;;;;;;;7.05;5.00;;;32.90;22.90;;;;;;4956043;29;20047;-74
2022/03/05 15:12:48;;;;;;;6.78;4.97;;;32.80;22.80;;;;;;4955359;29;20051;-73
2022/03/05 15:15:15;;;;;;;6.20;4.68;;;32.80;22.90;;;;;;4955791;29;20055;-75
2022/03/05 15:17:43;;;;;;;6.03;4.60;;;32.80;22.90;;;;;;4955935;29;20047;-76
2022/03/05 15:20:13;;;;;;;6.03;4.25;;;32.80;22.80;;;;;;4946863;29;20496;-75
2022/03/05 15:22:41;;;;;;;6.07;4.50;;;32.70;23.00;;;;;;4946404;29;20130;-77
2022/03/05 15:25:08;;;;;;;6.28;4.80;;;32.80;22.80;;;;;;4938862;29;20412;-76
2022/03/05 15:27:35;;;;;;;6.45;4.95;;;32.70;22.80;;;;;;4938871;29;20083;-75
2022/03/05 15:30:03;;;;;;;7.72;4.68;;;32.80;22.80;;;;;;4952008;29;20138;-77
2022/03/05 15:32:30;;;;;;;6.57;4.93;;;33.10;22.70;;;;;;4936557;29;20131;-73
2022/03/05 15:34:57;;;;;;;6.25;4.90;;;33.00;22.70;;;;;;4937644;29;20061;-73
2022/03/05 15:37:26;;;;;;;6.43;4.60;;;32.90;22.70;;;;;;4942533;29;20503;-77
2022/03/05 15:39:53;;;;;;;6.95;4.85;;;32.80;22.80;;;;;;4953736;29;20141;-75
2022/03/05 15:42:20;;;;;;;6.65;4.90;;;32.70;22.80;;;;;;4955441;29;20200;-75
2022/03/05 15:44:47;;;;;;;6.65;4.78;;;32.40;22.60;;;;;;4946093;29;20121;-74
2022/03/05 15:47:14;;;;;;;6.93;4.90;;;32.20;22.80;;;;;;4936169;29;20529;-74
2022/03/05 15:49:42;;;;;;;6.25;4.85;;;32.00;22.80;;;;;;4937017;29;20752;-74
2022/03/05 15:52:09;;;;;;;6.32;4.75;;;31.80;22.80;;;;;;4951632;29;20051;-80
2022/03/05 15:54:38;;;;;;;6.28;4.68;;;31.50;22.90;;;;;;4953855;28;20047;-76
2022/03/05 15:57:06;;;;;;;6.47;4.68;;;31.00;22.90;;;;;;4937312;29;20150;-79
2022/03/05 15:59:33;;;;;;;7.75;5.07;;;30.50;23.00;;;;;;4940102;29;20079;-73
2022/03/05 16:02:01;;;;;;;6.30;4.95;;;30.20;23.20;;;;;;4952438;29;20065;-78
2022/03/05 16:04:29;;;;;;;6.50;4.65;;;30.00;23.00;;;;;;4954927;29;20044;-78
2022/03/05 16:06:56;;;;;;;6.13;4.55;;;29.70;23.40;;;;;;4954301;29;20082;-77
2022/03/05 16:09:23;;;;;;;7.25;5.40;;;29.40;23.40;;;;;;4954780;29;20419;-74
2022/03/05 16:11:51;;;;;;;6.85;5.25;;;29.30;23.40;;;;;;4941078;29;20221;-78
2022/03/05 16:14:18;;;;;;;6.57;4.80;;;28.90;23.40;;;;;;4948361;29;20043;-79
2022/03/05 16:16:46;;;;;;;6.90;4.93;;;28.70;23.50;;;;;;4953294;29;20054;-79
2022/03/05 16:19:13;;;;;;;6.93;4.72;;;28.20;23.50;;;;;;4953900;29;20130;-77
2022/03/05 16:21:40;;;;;;;7.90;4.95;;;27.70;23.60;;;;;;4956177;29;20065;-79
2022/03/05 16:24:07;;;;;;;7.13;5.18;;;27.20;23.60;;;;;;4952867;29;20128;-73
2022/03/05 16:26:35;;;;;;;7.35;4.97;;;26.70;23.60;;;;;;4957305;29;20099;-78
2022/03/05 16:29:04;;;;;;;7.57;5.03;;;26.30;23.70;;;;;;4970868;29;20034;-78
2022/03/05 16:31:32;;;;;;;7.68;5.18;;;25.90;23.80;;;;;;4965390;29;20132;-75
2022/03/05 16:33:59;;;;;;;7.18;5.25;;;25.20;24.10;;;;;;4954530;29;20051;-77
2022/03/05 16:36:26;;;;;;;8.02;5.47;;;24.60;24.40;;;;;;4953862;29;20567;-81
2022/03/05 16:38:54;;;;;;;7.85;5.50;;;23.90;24.60;;;;;;4959335;29;20032;-80
2022/03/05 16:41:21;;;;;;;8.63;5.85;;;23.20;25.00;;;;;;4972091;28;20043;-77
2022/03/05 16:43:49;;;;;;;8.25;5.70;;;22.70;25.40;;;;;;4978265;28;20078;-76
2022/03/05 16:46:19;;;;;;;8.13;5.15;;;22.00;25.40;;;;;;4971870;28;20083;-77
2022/03/05 16:48:47;;;;;;;9.00;5.53;;;21.40;25.80;;;;;;4967963;28;20067;-76
2022/03/05 16:51:14;;;;;;;8.80;5.72;;;20.70;26.20;;;;;;4965890;29;20090;-78
2022/03/05 16:53:41;;;;;;;8.07;5.50;;;20.00;26.40;;;;;;4973177;28;20086;-78
2022/03/05 16:56:09;;;;;;;8.55;5.47;;;19.30;37.90;;;;;;4951470;29;20577;-75
2022/03/05 16:58:36;;;;;;;9.23;6.03;;;18.50;27.20;;;;;;4942824;29;20565;-74
2022/03/05 17:01:04;;;;;;;8.68;5.50;;;18.00;36.10;;;;;;4953610;29;20074;-78
2022/03/05 17:03:32;;;;;;;9.00;5.50;;;17.00;28.20;;;;;;4938918;29;20075;-80
2022/03/05 17:06:00;;;;;;;7.82;5.28;;;16.30;28.60;;;;;;4950590;28;20055;-77
2022/03/05 17:08:27;;;;;;;9.45;5.93;;;15.50;29.10;;;;;;4935442;29;20054;-78
2022/03/05 17:10:54;;;;;;;8.93;5.35;;;14.70;29.60;;;;;;4936166;29;20051;-80
2022/03/05 17:13:22;;;;;;;10.70;6.00;;;14.10;30.10;;;;;;4934835;29;20154;-78
2022/03/05 17:15:49;;;;;;;9.88;6.20;;;13.40;30.70;;;;;;4951413;29;20051;-80
2022/03/05 17:18:16;;;;;;;9.07;5.75;;;12.80;31.70;;;;;;4949122;29;20111;-80
2022/03/05 17:20:45;;;;;;;9.98;6.20;;;12.30;32.10;;;;;;4948715;29;20058;-79
2022/03/05 17:23:12;;;;;;;10.27;5.60;;;11.90;32.90;;;;;;4935033;29;20058;-81
2022/03/05 17:25:40;;;;;;;10.05;6.05;;;11.50;33.30;;;;;;4943767;29;20054;-80
2022/03/05 17:28:09;;;;;;;9.43;5.95;;;11.10;34.00;;;;;;4950728;29;20382;-81
2022/03/05 17:30:36;;;;;;;10.07;6.07;;;10.70;34.70;;;;;;4936365;29;20077;-78
2022/03/05 17:33:04;;;;;;;10.75;6.50;;;10.30;35.30;;;;;;4945519;29;20055;-78
2022/03/05 17:35:31;;;;;;;10.27;6.45;;;9.90;35.60;;;;;;4953816;29;20066;-79
2022/03/05 17:38:00;;;;;;;11.57;6.60;;;9.60;36.10;;;;;;4949139;29;20725;-79
2022/03/05 17:40:27;;;;;;;11.88;7.03;;;9.30;36.60;;;;;;4939084;29;20053;-81
2022/03/05 17:42:54;;;;;;;11.65;6.32;;;9.00;37.00;;;;;;4943178;29;20051;-78
2022/03/05 17:45:22;;;;;;;9.43;5.63;;;8.70;37.50;;;;;;4934479;29;20051;-78
2022/03/05 17:47:52;;;;;;;10.90;6.03;;;8.50;37.80;;;;;;4935694;29;20062;-81
2022/03/05 17:50:22;;;;;;;10.20;6.07;;;8.30;38.20;;;;;;4953852;29;20043;-81
2022/03/05 17:52:49;;;;;;;9.68;5.47;;;8.20;38.50;;;;;;4936643;29;20047;-78
2022/03/05 17:55:20;;;;;;;11.00;6.25;;;8.00;38.70;;;;;;4940967;29;20050;-79
2022/03/05 17:57:47;;;;;;;10.77;6.45;;;7.90;39.10;;;;;;4953280;29;20047;-81
2022/03/05 18:00:19;;;;;;;9.88;6.05;;;7.80;39.60;;;;;;4952760;29;20055;-79
2022/03/05 18:02:47;;;;;;;11.18;6.38;;;7.70;39.90;;;;;;4953134;29;20443;-81
2022/03/05 18:05:14;;;;;;;9.70;5.68;;;7.50;40.10;;;;;;4952199;29;20051;-81
2022/03/05 18:07:41;;;;;;;11.10;5.75;;;7.40;40.30;;;;;;4936703;29;20062;-79
2022/03/05 18:10:09;;;;;;;10.18;5.82;;;7.30;40.50;;;;;;4934157;29;20043;-79
2022/03/05 18:12:38;;;;;;;9.57;5.65;;;7.20;40.70;;;;;;4938751;28;20059;-78
2022/03/05 18:15:07;;;;;;;10.05;6.20;;;7.00;41.10;;;;;;4949311;29;20231;-78
2022/03/05 18:17:34;;;;;;;10.82;6.28;;;7.00;41.30;;;;;;4945656;28;20055;-79
2022/03/05 18:20:01;;;;;;;10.55;6.22;;;6.90;41.30;;;;;;4950357;29;20051;-78
2022/03/05 18:22:28;;;;;;;10.60;6.15;;;6.80;41.60;;;;;;4945270;29;20464;-78
2022/03/05 18:24:55;;;;;;;10.50;6.00;;;6.60;41.60;;;;;;4949548;29;20047;-78
2022/03/05 18:27:22;;;;;;;12.73;6.32;;;6.60;41.80;;;;;;4947836;29;20043;-80
2022/03/05 18:29:51;;;;;;;10.77;6.15;;;6.50;42.10;;;;;;4948573;29;20058;-81
2022/03/05 18:32:18;;;;;;;11.57;6.38;;;6.40;42.30;;;;;;4941133;29;20061;-77
2022/03/05 18:34:47;;;;;;;11.32;6.53;;;6.30;42.30;;;;;;4951559;29;20051;-80
2022/03/05 18:37:14;;;;;;;12.05;6.70;;;6.20;42.30;;;;;;4944643;29;20493;-78
2022/03/05 18:39:41;;;;;;;10.85;6.05;;;6.10;42.70;;;;;;4948905;29;20051;-78
2022/03/05 18:42:09;;;;;;;10.68;6.10;;;6.10;42.90;;;;;;4952144;29;20051;-77
2022/03/05 18:44:38;;;;;;;10.20;6.18;;;6.10;43.30;;;;;;4952970;29;20122;-79
2022/03/05 18:47:08;;;;;;;10.55;6.18;;;6.00;43.40;;;;;;4948210;29;20047;-78
2022/03/05 18:49:35;;;;;;;11.23;6.40;;;5.90;43.60;;;;;;4933706;29;20052;-81
2022/03/05 18:52:04;;;;;;;10.85;6.05;;;5.90;43.80;;;;;;4947770;29;20400;-78
2022/03/05 18:54:31;;;;;;;10.68;6.22;;;5.90;44.30;;;;;;4952212;29;20485;-79